createdAt,value
2018-11-29T00:00:01.905Z,36.60
2018-11-29T00:01:01.813Z,35.10
2018-11-29T00:02:01.692Z,34.70
2018-11-29T00:03:01.591Z,33.40
2018-11-29T00:04:01.485Z,37.50
2018-11-29T00:05:01.375Z,30.20
2018-11-29T00:06:01.286Z,36.00
2018-11-29T00:07:01.168Z,33.60
2018-11-29T00:08:01.057Z,36.90
2018-11-29T00:09:00.954Z,32.60
2018-11-29T00:10:00.848Z,34.70
2018-11-29T00:11:00.743Z,36.30
2018-11-29T00:12:00.651Z,32.50
2018-11-29T00:13:00.546Z,32.40
2018-11-29T00:14:00.425Z,35.90
2018-11-29T00:15:00.322Z,29.70
2018-11-29T00:16:00.213Z,32.70
2018-11-29T00:17:00.122Z,35.20
2018-11-29T00:17:59.999Z,31.80
2018-11-29T00:18:59.896Z,36.30
2018-11-29T00:19:59.788Z,31.20
2018-11-29T00:20:59.687Z,32.30
2018-11-29T00:21:59.598Z,32.30
2018-11-29T00:22:59.475Z,35.80
2018-11-29T00:23:59.364Z,33.00
2018-11-29T00:24:59.260Z,34.10
2018-11-29T00:25:59.157Z,33.40
2018-11-29T00:26:59.067Z,30.20
2018-11-29T00:27:58.942Z,32.20
2018-11-29T00:28:58.836Z,33.70
2018-11-29T00:29:58.732Z,31.30
2018-11-29T00:30:58.629Z,35.90
2018-11-29T00:31:58.536Z,30.60
2018-11-29T00:32:58.412Z,31.00
2018-11-29T00:33:58.307Z,32.70
2018-11-29T00:34:58.202Z,29.40
2018-11-29T00:35:58.095Z,32.10
2018-11-29T00:36:58.010Z,35.10
2018-11-29T00:37:57.884Z,31.90
2018-11-29T00:38:57.887Z,31.90
2018-11-29T00:39:57.674Z,31.10
2018-11-29T00:40:57.566Z,30.10
2018-11-29T00:41:57.478Z,32.60
2018-11-29T00:42:57.356Z,29.80
2018-11-29T00:43:57.251Z,33.80
2018-11-29T00:44:57.145Z,30.90
2018-11-29T00:45:57.144Z,32.20
2018-11-29T00:46:56.951Z,33.50
2018-11-29T00:47:56.827Z,29.60
2018-11-29T00:48:56.721Z,31.90
2018-11-29T00:49:56.615Z,32.10
2018-11-29T00:50:56.511Z,32.60
2018-11-29T00:51:56.421Z,32.20
2018-11-29T00:52:56.300Z,34.80
2018-11-29T00:53:56.196Z,31.20
2018-11-29T00:54:56.087Z,32.60
2018-11-29T00:55:55.980Z,30.40
2018-11-29T00:56:55.893Z,33.60
2018-11-29T00:57:55.770Z,32.00
2018-11-29T00:58:55.664Z,30.90
2018-11-29T00:59:55.654Z,31.40
2018-11-29T01:00:55.452Z,32.00
2018-11-29T01:01:55.362Z,31.80
2018-11-29T01:02:55.241Z,29.10
2018-11-29T01:03:55.137Z,31.20
2018-11-29T01:04:55.032Z,29.60
2018-11-29T01:05:54.923Z,31.90
2018-11-29T01:06:54.960Z,29.00
2018-11-29T01:07:54.713Z,29.60
2018-11-29T01:08:54.606Z,31.80
2018-11-29T01:09:54.502Z,29.20
2018-11-29T01:10:54.396Z,31.60
2018-11-29T01:11:54.305Z,29.90
2018-11-29T01:12:54.187Z,30.20
2018-11-29T01:13:54.185Z,31.80
2018-11-29T01:14:53.980Z,29.20
2018-11-29T01:15:53.869Z,30.00
2018-11-29T01:16:53.780Z,33.50
2018-11-29T01:17:53.658Z,28.80
2018-11-29T01:18:53.550Z,31.10
2018-11-29T01:19:53.447Z,32.50
2018-11-29T01:20:53.440Z,31.30
2018-11-29T01:21:53.251Z,32.50
2018-11-29T01:22:53.128Z,28.90
2018-11-29T01:23:53.021Z,30.60
2018-11-29T01:24:52.936Z,31.90
2018-11-29T01:25:52.817Z,29.70
2018-11-29T01:26:52.720Z,34.40
2018-11-29T01:27:52.706Z,28.10
2018-11-29T01:28:52.494Z,30.60
2018-11-29T01:29:52.388Z,29.40
2018-11-29T01:30:52.285Z,27.90
2018-11-29T01:31:52.199Z,31.30
2018-11-29T01:32:52.073Z,31.10
2018-11-29T01:33:51.969Z,30.30
2018-11-29T01:34:51.969Z,27.70
2018-11-29T01:35:51.755Z,29.40
2018-11-29T01:36:51.671Z,27.90
2018-11-29T01:37:51.544Z,31.00
2018-11-29T01:38:51.446Z,27.30
2018-11-29T01:39:51.332Z,31.00
2018-11-29T01:40:51.271Z,29.10
2018-11-29T01:41:51.243Z,30.00
2018-11-29T01:42:51.017Z,31.80
2018-11-29T01:43:50.911Z,28.10
2018-11-29T01:44:50.804Z,28.20
2018-11-29T01:45:50.699Z,30.70
2018-11-29T01:46:50.612Z,30.20
2018-11-29T01:47:50.487Z,25.30
2018-11-29T01:48:50.530Z,29.40
2018-11-29T01:49:50.276Z,28.60
2018-11-29T01:50:50.171Z,24.80
2018-11-29T01:51:50.118Z,30.80
2018-11-29T01:52:49.960Z,30.10
2018-11-29T01:53:49.855Z,27.00
2018-11-29T01:54:49.752Z,29.90
2018-11-29T01:55:49.748Z,30.50
2018-11-29T01:56:49.542Z,29.90
2018-11-29T01:57:49.449Z,29.30
2018-11-29T01:58:49.328Z,29.90
2018-11-29T01:59:49.221Z,27.10
2018-11-29T02:00:49.113Z,29.70
2018-11-29T02:01:49.013Z,31.30
2018-11-29T02:02:49.029Z,29.10
2018-11-29T02:03:48.799Z,26.10
2018-11-29T02:04:48.693Z,28.90
2018-11-29T02:05:48.590Z,27.80
2018-11-29T02:06:48.485Z,27.90
2018-11-29T02:07:48.395Z,28.80
2018-11-29T02:08:48.475Z,28.90
2018-11-29T02:09:48.168Z,28.60
2018-11-29T02:10:48.063Z,27.90
2018-11-29T02:11:47.958Z,28.20
2018-11-29T02:12:47.871Z,30.20
2018-11-29T02:13:47.747Z,26.90
2018-11-29T02:14:47.643Z,28.00
2018-11-29T02:15:47.537Z,29.10
2018-11-29T02:16:47.431Z,28.30
2018-11-29T02:17:47.340Z,29.50
2018-11-29T02:18:47.220Z,27.50
2018-11-29T02:19:47.111Z,25.90
2018-11-29T02:20:47.007Z,27.30
2018-11-29T02:21:46.902Z,27.90
2018-11-29T02:22:46.811Z,26.60
2018-11-29T02:23:46.688Z,27.60
2018-11-29T02:24:46.584Z,26.80
2018-11-29T02:25:46.480Z,28.60
2018-11-29T02:26:46.374Z,27.40
2018-11-29T02:27:46.295Z,24.90
2018-11-29T02:28:46.164Z,26.70
2018-11-29T02:29:46.059Z,27.60
2018-11-29T02:30:45.952Z,27.20
2018-11-29T02:31:45.847Z,25.20
2018-11-29T02:32:45.763Z,26.70
2018-11-29T02:33:45.643Z,26.90
2018-11-29T02:34:45.529Z,27.50
2018-11-29T02:35:45.423Z,26.80
2018-11-29T02:36:45.322Z,25.30
2018-11-29T02:37:45.232Z,28.10
2018-11-29T02:38:45.108Z,28.00
2018-11-29T02:39:45.003Z,26.20
2018-11-29T02:40:44.896Z,27.30
2018-11-29T02:41:44.791Z,28.80
2018-11-29T02:42:44.709Z,26.40
2018-11-29T02:43:44.579Z,28.20
2018-11-29T02:44:44.474Z,27.50
2018-11-29T02:45:44.369Z,25.40
2018-11-29T02:46:44.264Z,28.50
2018-11-29T02:47:44.173Z,27.40
2018-11-29T02:48:44.052Z,28.90
2018-11-29T02:49:43.947Z,25.40
2018-11-29T02:50:43.844Z,26.20
2018-11-29T02:51:43.736Z,26.30
2018-11-29T02:52:43.648Z,27.20
2018-11-29T02:53:43.523Z,27.40
2018-11-29T02:54:43.422Z,25.10
2018-11-29T02:55:43.313Z,27.60
2018-11-29T02:56:43.208Z,27.40
2018-11-29T02:57:43.123Z,28.10
2018-11-29T02:58:43.000Z,25.60
2018-11-29T02:59:42.892Z,25.00
2018-11-29T03:00:42.787Z,27.50
2018-11-29T03:01:42.682Z,27.80
2018-11-29T03:02:42.592Z,25.20
2018-11-29T03:03:42.472Z,26.70
2018-11-29T03:04:42.364Z,26.00
2018-11-29T03:05:42.258Z,26.10
2018-11-29T03:06:42.156Z,25.00
2018-11-29T03:07:42.065Z,25.40
2018-11-29T03:08:41.943Z,26.10
2018-11-29T03:09:41.837Z,23.90
2018-11-29T03:10:41.732Z,24.50
2018-11-29T03:11:41.629Z,26.70
2018-11-29T03:12:41.543Z,26.90
2018-11-29T03:13:41.417Z,27.00
2018-11-29T03:14:41.312Z,23.50
2018-11-29T03:15:41.206Z,26.30
2018-11-29T03:16:41.098Z,26.70
2018-11-29T03:17:41.011Z,24.90
2018-11-29T03:18:40.889Z,28.00
2018-11-29T03:19:40.789Z,25.70
2018-11-29T03:20:40.689Z,26.90
2018-11-29T03:21:40.577Z,26.00
2018-11-29T03:22:40.484Z,27.70
2018-11-29T03:23:40.363Z,27.80
2018-11-29T03:24:40.254Z,26.50
2018-11-29T03:25:40.256Z,26.10
2018-11-29T03:26:40.061Z,26.80
2018-11-29T03:27:39.972Z,27.80
2018-11-29T03:28:39.833Z,26.10
2018-11-29T03:29:39.730Z,27.20
2018-11-29T03:30:39.624Z,24.20
2018-11-29T03:31:39.525Z,28.50
2018-11-29T03:32:39.537Z,24.60
2018-11-29T03:33:39.306Z,27.00
2018-11-29T03:34:39.199Z,26.40
2018-11-29T03:35:44.304Z,27.70
2018-11-29T03:36:38.989Z,25.90
2018-11-29T03:37:38.902Z,27.10
2018-11-29T03:38:38.778Z,24.90
2018-11-29T03:39:38.795Z,28.10
2018-11-29T03:40:38.566Z,25.40
2018-11-29T03:41:38.461Z,27.70
2018-11-29T03:42:38.361Z,28.70
2018-11-29T03:43:38.266Z,25.60
2018-11-29T03:44:38.148Z,27.20
2018-11-29T03:45:38.044Z,25.30
2018-11-29T03:46:38.033Z,27.90
2018-11-29T03:47:37.829Z,27.60
2018-11-29T03:48:37.756Z,27.60
2018-11-29T03:49:37.617Z,28.30
2018-11-29T03:50:37.511Z,24.90
2018-11-29T03:51:37.405Z,28.80
2018-11-29T03:52:37.302Z,28.00
2018-11-29T03:53:37.319Z,28.30
2018-11-29T03:54:37.088Z,27.00
2018-11-29T03:55:36.984Z,26.90
2018-11-29T03:56:36.878Z,26.80
2018-11-29T03:57:36.793Z,29.10
2018-11-29T03:58:36.682Z,28.40
2018-11-29T03:59:36.566Z,26.50
2018-11-29T04:00:36.578Z,27.90
2018-11-29T04:01:36.350Z,26.40
2018-11-29T04:02:36.249Z,28.50
2018-11-29T04:03:36.159Z,26.30
2018-11-29T04:04:36.035Z,27.90
2018-11-29T04:05:35.929Z,28.20
2018-11-29T04:06:35.824Z,29.20
2018-11-29T04:07:35.821Z,28.40
2018-11-29T04:08:35.628Z,27.00
2018-11-29T04:09:35.515Z,28.30
2018-11-29T04:10:35.406Z,28.40
2018-11-29T04:11:35.297Z,27.00
2018-11-29T04:12:35.191Z,27.60
2018-11-29T04:13:35.102Z,27.30
2018-11-29T04:14:35.086Z,29.00
2018-11-29T04:15:34.874Z,27.70
2018-11-29T04:16:34.768Z,28.00
2018-11-29T04:17:40.726Z,28.60
2018-11-29T04:18:34.577Z,28.00
2018-11-29T04:19:34.452Z,27.40
2018-11-29T04:20:34.348Z,25.20
2018-11-29T04:21:34.347Z,28.80
2018-11-29T04:22:34.136Z,27.30
2018-11-29T04:23:34.047Z,30.40
2018-11-29T04:24:33.925Z,28.20
2018-11-29T04:25:33.821Z,27.60
2018-11-29T04:26:33.715Z,28.10
2018-11-29T04:27:33.610Z,28.20
2018-11-29T04:28:33.622Z,30.00
2018-11-29T04:29:33.399Z,27.10
2018-11-29T04:30:33.291Z,31.40
2018-11-29T04:31:33.186Z,29.00
2018-11-29T04:32:33.082Z,30.10
2018-11-29T04:33:32.997Z,27.00
2018-11-29T04:34:32.873Z,31.60
2018-11-29T04:35:32.766Z,29.40
2018-11-29T04:36:32.661Z,30.00
2018-11-29T04:37:32.555Z,29.20
2018-11-29T04:38:32.465Z,27.60
2018-11-29T04:39:32.343Z,30.70
2018-11-29T04:40:32.236Z,27.20
2018-11-29T04:41:32.132Z,28.70
2018-11-29T04:42:32.028Z,28.70
2018-11-29T04:43:31.935Z,30.30
2018-11-29T04:44:31.815Z,30.80
2018-11-29T04:45:31.709Z,27.40
2018-11-29T04:46:31.605Z,30.50
2018-11-29T04:47:31.501Z,28.60
2018-11-29T04:48:31.407Z,32.40
2018-11-29T04:49:31.287Z,29.10
2018-11-29T04:50:31.181Z,31.00
2018-11-29T04:51:31.076Z,29.20
2018-11-29T04:52:30.970Z,29.80
2018-11-29T04:53:30.881Z,33.20
2018-11-29T04:54:30.760Z,29.40
2018-11-29T04:55:30.656Z,32.00
2018-11-29T04:56:30.547Z,30.30
2018-11-29T04:57:30.444Z,31.60
2018-11-29T04:58:30.352Z,30.20
2018-11-29T04:59:30.228Z,33.00
2018-11-29T05:00:30.126Z,29.80
2018-11-29T05:01:30.017Z,29.80
2018-11-29T05:02:29.916Z,31.40
2018-11-29T05:03:29.822Z,30.00
2018-11-29T05:04:29.702Z,33.80
2018-11-29T05:05:29.599Z,32.40
2018-11-29T05:06:29.490Z,32.20
2018-11-29T05:07:29.390Z,32.20
2018-11-29T05:08:29.301Z,30.10
2018-11-29T05:09:29.179Z,31.50
2018-11-29T05:10:29.068Z,34.50
2018-11-29T05:11:29.318Z,32.30
2018-11-29T05:12:28.856Z,31.00
2018-11-29T05:13:28.771Z,33.70
2018-11-29T05:14:28.644Z,30.50
2018-11-29T05:15:28.536Z,32.30
2018-11-29T05:16:28.433Z,32.40
2018-11-29T05:17:28.325Z,34.90
2018-11-29T05:18:28.242Z,33.90
2018-11-29T05:19:28.114Z,31.90
2018-11-29T05:20:28.008Z,33.80
2018-11-29T05:21:27.903Z,30.90
2018-11-29T05:22:27.800Z,32.50
2018-11-29T05:23:27.708Z,33.70
2018-11-29T05:24:27.586Z,33.60
2018-11-29T05:25:27.485Z,35.80
2018-11-29T05:26:27.376Z,31.90
2018-11-29T05:27:27.267Z,32.70
2018-11-29T05:28:27.165Z,33.00
2018-11-29T05:29:27.073Z,31.60
2018-11-29T05:30:26.949Z,32.40
2018-11-29T05:31:26.844Z,32.90
2018-11-29T05:32:26.743Z,34.20
2018-11-29T05:33:26.637Z,31.70
2018-11-29T05:34:26.547Z,32.50
2018-11-29T05:35:26.424Z,33.70
2018-11-29T05:36:26.317Z,35.20
2018-11-29T05:37:26.216Z,31.70
2018-11-29T05:38:26.110Z,31.10
2018-11-29T05:39:26.015Z,33.60
2018-11-29T05:40:25.895Z,34.20
2018-11-29T05:41:25.788Z,32.30
2018-11-29T05:42:25.682Z,34.30
2018-11-29T05:43:25.581Z,35.30
2018-11-29T05:44:25.488Z,35.60
2018-11-29T05:45:25.366Z,32.50
2018-11-29T05:46:25.260Z,35.10
2018-11-29T05:47:25.152Z,36.40
2018-11-29T05:48:25.048Z,31.70
2018-11-29T05:49:24.958Z,31.60
2018-11-29T05:50:24.835Z,36.60
2018-11-29T05:51:24.735Z,31.20
2018-11-29T05:52:24.623Z,33.60
2018-11-29T05:53:24.521Z,35.00
2018-11-29T05:54:24.436Z,34.50
2018-11-29T05:55:24.307Z,33.00
2018-11-29T05:56:24.200Z,32.50
2018-11-29T05:57:24.096Z,31.20
2018-11-29T05:58:23.994Z,34.50
2018-11-29T05:59:23.907Z,32.30
2018-11-29T06:00:23.778Z,33.90
2018-11-29T06:01:23.673Z,32.10
2018-11-29T06:02:23.570Z,35.20
2018-11-29T06:03:23.462Z,32.30
2018-11-29T06:04:23.372Z,34.90
2018-11-29T06:05:23.252Z,32.50
2018-11-29T06:06:23.148Z,31.10
2018-11-29T06:07:23.040Z,33.80
2018-11-29T06:08:22.933Z,32.80
2018-11-29T06:09:22.850Z,33.10
2018-11-29T06:10:22.721Z,36.10
2018-11-29T06:11:22.613Z,30.40
2018-11-29T06:12:22.516Z,32.70
2018-11-29T06:13:22.429Z,34.50
2018-11-29T06:14:22.314Z,33.20
2018-11-29T06:15:22.190Z,34.20
2018-11-29T06:16:22.085Z,34.20
2018-11-29T06:17:21.982Z,33.20
2018-11-29T06:18:21.874Z,34.90
2018-11-29T06:19:21.824Z,34.20
2018-11-29T06:20:21.662Z,34.00
2018-11-29T06:21:21.557Z,36.10
2018-11-29T06:22:21.451Z,34.50
2018-11-29T06:23:21.345Z,34.90
2018-11-29T06:24:21.256Z,36.90
2018-11-29T06:25:21.135Z,35.10
2018-11-29T06:26:21.028Z,34.30
2018-11-29T06:27:21.027Z,34.40
2018-11-29T06:28:20.815Z,36.90
2018-11-29T06:29:20.725Z,35.60
2018-11-29T06:30:20.613Z,34.00
2018-11-29T06:31:20.498Z,36.60
2018-11-29T06:32:20.394Z,33.20
2018-11-29T06:33:20.287Z,34.00
2018-11-29T06:34:20.299Z,34.90
2018-11-29T06:35:20.074Z,35.00
2018-11-29T06:36:19.969Z,33.40
2018-11-29T06:37:19.861Z,37.10
2018-11-29T06:38:19.755Z,33.10
2018-11-29T06:39:19.668Z,33.70
2018-11-29T06:40:19.546Z,33.80
2018-11-29T06:41:19.540Z,36.30
2018-11-29T06:42:19.333Z,35.20
2018-11-29T06:43:19.227Z,35.10
2018-11-29T06:44:19.138Z,37.30
2018-11-29T06:45:19.015Z,34.50
2018-11-29T06:46:18.911Z,33.80
2018-11-29T06:47:18.819Z,32.70
2018-11-29T06:48:18.819Z,35.60
2018-11-29T06:49:18.607Z,34.60
2018-11-29T06:50:18.487Z,35.50
2018-11-29T06:51:18.379Z,39.10
2018-11-29T06:52:18.276Z,34.60
2018-11-29T06:53:18.167Z,33.20
2018-11-29T06:54:18.078Z,34.80
2018-11-29T06:55:18.071Z,36.60
2018-11-29T06:56:17.850Z,35.70
2018-11-29T06:57:17.747Z,35.10
2018-11-29T06:58:17.640Z,37.90
2018-11-29T06:59:17.549Z,34.40
2018-11-29T07:00:17.427Z,36.10
2018-11-29T07:01:17.323Z,39.70
2018-11-29T07:02:17.322Z,35.20
2018-11-29T07:03:17.109Z,38.10
2018-11-29T07:04:17.020Z,38.70
2018-11-29T07:05:16.898Z,32.30
2018-11-29T07:06:16.793Z,36.90
2018-11-29T07:07:16.688Z,37.20
2018-11-29T07:08:16.582Z,37.00
2018-11-29T07:09:16.580Z,37.60
2018-11-29T07:10:16.385Z,35.50
2018-11-29T07:11:16.266Z,35.00
2018-11-29T07:12:16.158Z,37.80
2018-11-29T07:13:16.052Z,35.60
2018-11-29T07:14:15.948Z,38.40
2018-11-29T07:15:15.856Z,35.50
2018-11-29T07:16:15.857Z,39.40
2018-11-29T07:17:15.628Z,36.20
2018-11-29T07:18:15.522Z,33.90
2018-11-29T07:19:15.420Z,34.30
2018-11-29T07:20:15.328Z,37.10
2018-11-29T07:21:15.206Z,35.70
2018-11-29T07:22:15.100Z,36.50
2018-11-29T07:23:15.100Z,36.80
2018-11-29T07:24:14.894Z,37.70
2018-11-29T07:25:14.804Z,34.80
2018-11-29T07:26:14.679Z,36.00
2018-11-29T07:27:14.571Z,33.60
2018-11-29T07:28:14.469Z,38.10
2018-11-29T07:29:16.880Z,34.10
2018-11-29T07:30:14.373Z,36.50
2018-11-29T07:31:14.151Z,38.10
2018-11-29T07:32:14.042Z,35.80
2018-11-29T07:33:13.939Z,34.80
2018-11-29T07:34:13.832Z,35.60
2018-11-29T07:35:13.742Z,33.10
2018-11-29T07:36:13.621Z,37.00
2018-11-29T07:37:17.406Z,37.10
2018-11-29T07:38:13.409Z,33.40
2018-11-29T07:39:13.303Z,33.40
2018-11-29T07:40:13.215Z,36.00
2018-11-29T07:41:13.092Z,36.00
2018-11-29T07:42:12.990Z,37.60
2018-11-29T07:43:12.880Z,33.50
2018-11-29T07:44:12.886Z,33.40
2018-11-29T07:45:12.686Z,36.10
2018-11-29T07:46:12.564Z,36.00
2018-11-29T07:47:12.458Z,36.40
2018-11-29T07:48:12.352Z,35.70
2018-11-29T07:49:12.249Z,37.90
2018-11-29T07:50:12.158Z,34.50
2018-11-29T07:51:12.042Z,35.80
2018-11-29T07:52:11.929Z,31.90
2018-11-29T07:53:11.825Z,35.00
2018-11-29T07:54:11.720Z,34.10
2018-11-29T07:55:11.631Z,33.20
2018-11-29T07:56:11.508Z,33.70
2018-11-29T07:57:11.405Z,31.30
2018-11-29T07:58:11.300Z,33.00
2018-11-29T07:59:11.197Z,33.80
2018-11-29T08:00:11.105Z,32.00
2018-11-29T08:01:10.985Z,31.10
2018-11-29T08:02:10.897Z,30.40
2018-11-29T08:03:10.777Z,32.80
2018-11-29T08:04:10.673Z,32.30
2018-11-29T08:05:10.584Z,31.90
2018-11-29T08:06:10.463Z,31.80
2018-11-29T08:07:10.357Z,31.10
2018-11-29T08:08:10.256Z,32.10
2018-11-29T08:09:10.159Z,31.40
2018-11-29T08:10:10.062Z,30.20
2018-11-29T08:11:09.945Z,33.30
2018-11-29T08:12:09.839Z,31.20
2018-11-29T08:13:09.735Z,31.90
2018-11-29T08:14:09.633Z,29.50
2018-11-29T08:15:09.546Z,31.30
2018-11-29T08:16:09.425Z,30.80
2018-11-29T08:17:09.328Z,31.70
2018-11-29T08:18:09.222Z,31.70
2018-11-29T08:19:09.118Z,31.10
2018-11-29T08:20:09.031Z,31.90
2018-11-29T08:21:08.961Z,33.10
2018-11-29T08:22:08.811Z,31.70
2018-11-29T08:23:08.709Z,31.30
2018-11-29T08:24:08.605Z,29.40
2018-11-29T08:25:08.521Z,30.80
2018-11-29T08:26:08.401Z,29.90
2018-11-29T08:27:08.303Z,31.70
2018-11-29T08:28:08.198Z,32.10
2018-11-29T08:29:08.096Z,32.80
2018-11-29T08:30:08.012Z,32.80
2018-11-29T08:31:07.892Z,32.50
2018-11-29T08:32:07.790Z,32.00
2018-11-29T08:33:07.691Z,33.60
2018-11-29T08:34:07.588Z,33.20
2018-11-29T08:35:07.501Z,30.40
2018-11-29T08:36:07.383Z,33.70
2018-11-29T08:37:07.283Z,31.60
2018-11-29T08:38:07.181Z,34.30
2018-11-29T08:39:07.081Z,32.90
2018-11-29T08:40:06.994Z,32.50
2018-11-29T08:41:06.883Z,32.70
2018-11-29T08:42:06.776Z,32.40
2018-11-29T08:43:06.675Z,32.70
2018-11-29T08:44:06.574Z,33.50
2018-11-29T08:45:06.489Z,33.10
2018-11-29T08:46:06.370Z,33.90
2018-11-29T08:47:06.269Z,33.70
2018-11-29T08:48:06.168Z,33.90
2018-11-29T08:49:06.066Z,32.40
2018-11-29T08:50:05.981Z,32.50
2018-11-29T08:51:05.866Z,31.70
2018-11-29T08:52:05.761Z,30.20
2018-11-29T08:53:05.661Z,32.40
2018-11-29T08:54:05.562Z,31.50
2018-11-29T08:55:05.462Z,30.30
2018-11-29T08:56:05.372Z,30.50
2018-11-29T08:57:05.259Z,30.60
2018-11-29T08:58:05.155Z,30.20
2018-11-29T08:59:05.053Z,31.40
2018-11-29T09:00:04.977Z,28.30
2018-11-29T09:01:04.851Z,30.20
2018-11-29T09:02:04.750Z,29.20
2018-11-29T09:03:04.647Z,33.90
2018-11-29T09:04:04.551Z,30.70
2018-11-29T09:05:04.449Z,31.30
2018-11-29T09:06:04.366Z,33.60
2018-11-29T09:07:04.245Z,31.70
2018-11-29T09:08:04.144Z,32.10
2018-11-29T09:09:04.042Z,31.60
2018-11-29T09:10:03.943Z,31.70
2018-11-29T09:11:03.858Z,31.50
2018-11-29T09:12:03.742Z,33.70
2018-11-29T09:13:03.640Z,32.90
2018-11-29T09:14:03.538Z,32.50
2018-11-29T09:15:03.439Z,32.70
2018-11-29T09:16:03.357Z,34.80
2018-11-29T09:17:03.235Z,35.20
2018-11-29T09:18:03.134Z,34.50
2018-11-29T09:19:03.034Z,34.20
2018-11-29T09:20:02.940Z,35.10
2018-11-29T09:21:02.956Z,36.60
2018-11-29T09:22:02.736Z,35.10
2018-11-29T09:23:02.631Z,35.00
2018-11-29T09:24:02.531Z,36.60
2018-11-29T09:25:02.447Z,36.50
2018-11-29T09:26:02.347Z,35.00
2018-11-29T09:27:02.231Z,37.40
2018-11-29T09:28:02.239Z,34.50
2018-11-29T09:29:02.029Z,37.00
2018-11-29T09:30:01.931Z,36.40
2018-11-29T09:31:01.844Z,37.40
2018-11-29T09:32:01.730Z,35.80
2018-11-29T09:33:01.630Z,36.30
2018-11-29T09:34:01.531Z,34.80
2018-11-29T09:35:01.550Z,33.20
2018-11-29T09:36:01.345Z,34.60
2018-11-29T09:37:01.227Z,34.80
2018-11-29T09:38:01.126Z,33.30
2018-11-29T09:39:01.029Z,34.90
2018-11-29T09:40:00.930Z,32.40
2018-11-29T09:41:00.844Z,33.70
2018-11-29T09:42:02.957Z,32.50
2018-11-29T09:43:00.626Z,29.80
2018-11-29T09:44:00.577Z,33.10
2018-11-29T09:45:00.426Z,31.00
2018-11-29T09:46:00.343Z,30.70
2018-11-29T09:47:00.227Z,29.70
2018-11-29T09:48:00.126Z,31.30
2018-11-29T09:49:00.294Z,29.50
2018-11-29T09:49:59.928Z,30.30
2018-11-29T09:50:59.840Z,30.10
2018-11-29T09:51:59.724Z,29.30
2018-11-29T09:52:59.625Z,29.60
2018-11-29T09:53:59.526Z,30.80
2018-11-29T09:54:59.426Z,27.10
2018-11-29T09:55:59.448Z,28.90
2018-11-29T09:56:59.228Z,27.90
2018-11-29T09:57:59.129Z,27.20
2018-11-29T09:58:59.026Z,28.10
2018-11-29T09:59:58.925Z,27.30
2018-11-29T10:00:58.845Z,29.60
2018-11-29T10:01:58.726Z,28.60
2018-11-29T10:02:58.740Z,28.20
2018-11-29T10:03:58.527Z,28.50
2018-11-29T10:04:58.431Z,29.10
2018-11-29T10:05:58.347Z,28.90
2018-11-29T10:06:58.239Z,27.00
2018-11-29T10:07:58.217Z,28.30
2018-11-29T10:08:58.031Z,28.70
2018-11-29T10:09:58.034Z,26.00
2018-11-29T10:10:57.848Z,28.10
2018-11-29T10:11:57.732Z,26.90
2018-11-29T10:12:57.634Z,28.00
2018-11-29T10:13:57.537Z,27.00
2018-11-29T10:14:57.438Z,28.60
2018-11-29T10:15:57.361Z,26.20
2018-11-29T10:16:57.241Z,27.80
2018-11-29T10:17:57.142Z,29.70
2018-11-29T10:18:57.040Z,28.20
2018-11-29T10:19:56.949Z,27.30
2018-11-29T10:20:56.861Z,28.30
2018-11-29T10:21:56.745Z,29.40
2018-11-29T10:22:56.643Z,29.00
2018-11-29T10:23:56.553Z,29.20
2018-11-29T10:24:56.447Z,28.30
2018-11-29T10:25:56.364Z,27.70
2018-11-29T10:26:56.253Z,27.00
2018-11-29T10:27:56.151Z,28.10
2018-11-29T10:28:56.054Z,27.60
2018-11-29T10:29:55.955Z,28.30
2018-11-29T10:30:55.871Z,27.90
2018-11-29T10:31:55.756Z,29.20
2018-11-29T10:32:55.659Z,28.90
2018-11-29T10:33:55.562Z,27.40
2018-11-29T10:34:55.463Z,27.70
2018-11-29T10:35:59.082Z,28.30
2018-11-29T10:36:55.265Z,26.40
2018-11-29T10:37:55.164Z,28.50
2018-11-29T10:38:55.066Z,25.20
2018-11-29T10:39:54.967Z,27.30
2018-11-29T10:40:54.870Z,26.30
2018-11-29T10:41:54.787Z,27.50
2018-11-29T10:42:54.671Z,27.50
2018-11-29T10:43:54.576Z,27.10
2018-11-29T10:44:54.474Z,28.10
2018-11-29T10:45:54.780Z,27.00
2018-11-29T10:46:54.294Z,28.10
2018-11-29T10:47:54.180Z,28.30
2018-11-29T10:48:54.079Z,27.90
2018-11-29T10:49:53.982Z,28.70
2018-11-29T10:50:53.905Z,28.70
2018-11-29T10:51:53.799Z,28.00
2018-11-29T10:52:53.687Z,32.00
2018-11-29T10:53:53.590Z,30.20
2018-11-29T10:54:53.489Z,29.70
2018-11-29T10:55:53.397Z,29.90
2018-11-29T10:56:53.308Z,30.40
2018-11-29T10:57:53.190Z,29.40
2018-11-29T10:58:53.092Z,29.20
2018-11-29T10:59:52.994Z,27.70
2018-11-29T11:00:52.901Z,28.80
2018-11-29T11:01:52.812Z,29.20
2018-11-29T11:02:52.699Z,28.60
2018-11-29T11:03:52.597Z,30.80
2018-11-29T11:04:52.499Z,30.80
2018-11-29T11:05:52.400Z,29.60
2018-11-29T11:06:52.320Z,29.70
2018-11-29T11:07:52.202Z,31.00
2018-11-29T11:08:52.104Z,30.50
2018-11-29T11:09:52.006Z,28.30
2018-11-29T11:10:51.907Z,28.60
2018-11-29T11:11:51.822Z,29.00
2018-11-29T11:12:51.708Z,28.80
2018-11-29T11:13:51.611Z,28.60
2018-11-29T11:14:51.509Z,28.70
2018-11-29T11:15:51.417Z,30.00
2018-11-29T11:16:51.328Z,30.00
2018-11-29T11:17:51.229Z,27.90
2018-11-29T11:18:51.115Z,28.70
2018-11-29T11:19:51.016Z,27.40
2018-11-29T11:20:50.917Z,27.30
2018-11-29T11:21:50.838Z,28.00
2018-11-29T11:22:50.720Z,27.40
2018-11-29T11:23:50.630Z,27.80
2018-11-29T11:24:50.526Z,27.20
2018-11-29T11:25:50.428Z,27.00
2018-11-29T11:26:50.343Z,29.10
2018-11-29T11:27:50.227Z,28.20
2018-11-29T11:28:50.130Z,26.90
2018-11-29T11:29:50.032Z,26.80
2018-11-29T11:30:49.933Z,26.10
2018-11-29T11:31:49.851Z,28.40
2018-11-29T11:32:49.740Z,27.30
2018-11-29T11:33:49.636Z,24.90
2018-11-29T11:34:49.543Z,26.90
2018-11-29T11:35:49.440Z,26.70
2018-11-29T11:36:49.357Z,26.80
2018-11-29T11:37:49.242Z,25.90
2018-11-29T11:38:49.176Z,26.20
2018-11-29T11:39:49.046Z,27.10
2018-11-29T11:40:48.946Z,25.40
2018-11-29T11:41:48.864Z,26.20
2018-11-29T11:42:48.748Z,26.30
2018-11-29T11:43:48.648Z,26.20
2018-11-29T11:44:48.559Z,25.20
2018-11-29T11:45:48.455Z,26.20
2018-11-29T11:46:48.370Z,25.60
2018-11-29T11:47:48.292Z,27.30
2018-11-29T11:48:48.160Z,25.90
2018-11-29T11:49:48.062Z,25.30
2018-11-29T11:50:47.968Z,26.50
2018-11-29T11:51:47.881Z,27.10
2018-11-29T11:52:47.764Z,26.60
2018-11-29T11:53:47.667Z,26.60
2018-11-29T11:54:47.572Z,27.60
2018-11-29T11:55:53.312Z,25.30
2018-11-29T11:56:47.389Z,26.00
2018-11-29T11:57:47.274Z,26.60
2018-11-29T11:58:47.174Z,27.10
2018-11-29T11:59:47.076Z,29.10
2018-11-29T12:00:46.978Z,27.40
2018-11-29T12:01:46.897Z,28.10
2018-11-29T12:02:46.878Z,27.70
2018-11-29T12:03:46.685Z,27.90
2018-11-29T12:04:48.661Z,27.10
2018-11-29T12:05:46.486Z,28.00
2018-11-29T12:06:46.402Z,27.30
2018-11-29T12:07:46.290Z,28.70
2018-11-29T12:08:46.189Z,28.00
2018-11-29T12:09:46.094Z,27.50
2018-11-29T12:10:45.988Z,27.50
2018-11-29T12:11:45.909Z,27.70
2018-11-29T12:12:45.794Z,28.60
2018-11-29T12:13:45.693Z,29.50
2018-11-29T12:14:45.595Z,27.20
2018-11-29T12:15:45.600Z,28.00
2018-11-29T12:16:45.410Z,30.40
2018-11-29T12:17:45.302Z,28.40
2018-11-29T12:18:45.198Z,27.60
2018-11-29T12:19:45.095Z,28.30
2018-11-29T12:20:44.998Z,29.20
2018-11-29T12:21:44.915Z,28.30
2018-11-29T12:22:44.801Z,29.00
2018-11-29T12:23:44.698Z,28.50
2018-11-29T12:24:44.597Z,28.30
2018-11-29T12:25:44.496Z,28.00
2018-11-29T12:26:44.401Z,27.90
2018-11-29T12:27:44.316Z,28.20
2018-11-29T12:28:44.198Z,28.30
2018-11-29T12:29:44.205Z,28.10
2018-11-29T12:30:43.996Z,28.80
2018-11-29T12:31:43.911Z,29.80
2018-11-29T12:32:43.794Z,29.00
2018-11-29T12:33:43.698Z,29.50
2018-11-29T12:34:43.594Z,27.90
2018-11-29T12:35:43.497Z,28.40
2018-11-29T12:36:43.495Z,27.50
2018-11-29T12:37:43.313Z,31.00
2018-11-29T12:38:43.195Z,28.30
2018-11-29T12:39:43.094Z,29.30
2018-11-29T12:40:42.992Z,29.10
2018-11-29T12:41:42.894Z,27.20
2018-11-29T12:42:42.808Z,29.30
2018-11-29T12:43:42.790Z,29.70
2018-11-29T12:44:42.589Z,28.90
2018-11-29T12:45:42.497Z,29.20
2018-11-29T12:46:42.390Z,29.00
2018-11-29T12:47:42.306Z,29.10
2018-11-29T12:48:42.186Z,27.40
2018-11-29T12:49:42.087Z,28.60
2018-11-29T12:50:42.087Z,29.00